createdAt,value
2019-05-16T00:00:08.386Z,85.14
2019-05-16T00:02:35.324Z,85.34
2019-05-16T00:05:04.881Z,85.58
2019-05-16T00:07:31.868Z,85.53
2019-05-16T00:09:59.114Z,85.31
2019-05-16T00:12:29.161Z,85.19
2019-05-16T00:15:02.025Z,85.12
2019-05-16T00:17:30.844Z,84.81
2019-05-16T00:19:58.920Z,84.92
2019-05-16T00:22:26.040Z,84.76
2019-05-16T00:24:52.624Z,84.84
2019-05-16T00:27:19.218Z,84.84
2019-05-16T00:29:45.788Z,84.85
2019-05-16T00:32:12.606Z,84.87
2019-05-16T00:38:08.635Z,85.10
2019-05-16T00:52:41.672Z,85.24
2019-05-16T00:55:08.601Z,85.39
2019-05-16T00:57:38.630Z,85.60
2019-05-16T01:00:08.264Z,85.74
2019-05-16T01:02:37.983Z,85.46
2019-05-16T01:05:08.266Z,85.40
2019-05-16T01:07:34.445Z,85.44
2019-05-16T01:10:04.344Z,85.02
2019-05-16T01:12:35.529Z,85.19
2019-05-16T01:15:07.623Z,85.16
2019-05-16T01:17:34.313Z,85.27
2019-05-16T01:20:01.147Z,85.21
2019-05-16T01:22:28.983Z,85.12
2019-05-16T01:24:58.498Z,84.83
2019-05-16T01:27:31.166Z,84.84
2019-05-16T01:29:58.389Z,84.82
2019-05-16T01:32:25.530Z,84.66
2019-05-16T01:34:52.518Z,84.83
2019-05-16T01:37:19.068Z,84.81
2019-05-16T01:39:45.740Z,84.73
2019-05-16T01:42:12.540Z,84.66
2019-05-16T01:44:39.024Z,84.85
2019-05-16T01:47:05.825Z,84.80
2019-05-16T01:49:32.474Z,84.79
2019-05-16T01:52:13.228Z,84.54
2019-05-16T01:54:39.924Z,84.71
2019-05-16T01:57:08.128Z,84.48
2019-05-16T01:59:38.208Z,84.54
2019-05-16T02:02:05.104Z,84.60
2019-05-16T02:04:32.030Z,84.73
2019-05-16T02:06:59.178Z,84.72
2019-05-16T02:09:27.920Z,84.77
2019-05-16T02:12:31.573Z,84.75
2019-05-16T02:14:58.752Z,84.83
2019-05-16T02:17:25.674Z,84.59
2019-05-16T02:19:52.278Z,84.71
2019-05-16T02:22:18.923Z,84.86
2019-05-16T02:24:59.596Z,84.88
2019-05-16T02:27:28.832Z,84.81
2019-05-16T02:29:55.494Z,84.76
2019-05-16T02:32:22.431Z,84.70
2019-05-16T02:35:11.303Z,84.70
2019-05-16T02:37:36.757Z,84.81
2019-05-16T02:40:11.929Z,84.74
2019-05-16T02:42:37.605Z,84.70
2019-05-16T02:45:10.692Z,84.65
2019-05-16T02:47:36.099Z,84.99
2019-05-16T02:50:06.501Z,85.26
2019-05-16T02:52:33.077Z,85.16
2019-05-16T02:55:00.916Z,84.85
2019-05-16T02:57:31.330Z,84.47
2019-05-16T02:59:56.571Z,84.34
2019-05-16T03:02:23.364Z,84.38
2019-05-16T03:04:52.050Z,84.39
2019-05-16T03:07:36.748Z,84.55
2019-05-16T03:09:54.032Z,84.53
2019-05-16T03:12:21.500Z,84.25
2019-05-16T03:14:54.379Z,84.51
2019-05-16T03:17:22.104Z,84.16
2019-05-16T03:19:51.116Z,84.19
2019-05-16T03:22:22.047Z,84.22
2019-05-16T03:24:51.349Z,83.99
2019-05-16T03:27:16.967Z,84.24
2019-05-16T03:29:43.713Z,84.06
2019-05-16T03:32:14.118Z,84.08
2019-05-16T03:34:43.693Z,84.09
2019-05-16T03:37:15.772Z,83.99
2019-05-16T03:39:42.609Z,84.20
2019-05-16T03:42:12.465Z,84.40
2019-05-16T03:44:41.066Z,84.37
2019-05-16T03:47:11.031Z,84.50
2019-05-16T03:49:36.580Z,84.50
2019-05-16T03:52:03.482Z,84.53
2019-05-16T03:54:31.391Z,84.45
2019-05-16T03:57:00.446Z,84.48
2019-05-16T03:59:27.312Z,84.45
2019-05-16T04:01:53.873Z,84.13
2019-05-16T04:04:21.110Z,84.17
2019-05-16T04:06:50.717Z,84.04
2019-05-16T04:09:16.656Z,84.22
2019-05-16T04:11:43.568Z,84.18
2019-05-16T04:14:10.889Z,84.53
2019-05-16T04:16:37.717Z,84.07
2019-05-16T04:19:04.646Z,83.94
2019-05-16T04:21:32.523Z,83.86
2019-05-16T04:24:01.291Z,84.26
2019-05-16T04:26:30.786Z,84.04
2019-05-16T04:28:56.506Z,84.20
2019-05-16T04:31:23.072Z,83.71
2019-05-16T04:33:51.655Z,83.70
2019-05-16T04:36:21.086Z,83.46
2019-05-16T04:38:47.099Z,83.59
2019-05-16T04:41:13.651Z,83.11
2019-05-16T04:43:41.622Z,83.42
2019-05-16T04:46:31.115Z,82.94
2019-05-16T04:48:56.749Z,83.06
2019-05-16T04:51:23.377Z,83.26
2019-05-16T04:53:51.816Z,83.02
2019-05-16T04:56:25.275Z,83.00
2019-05-16T04:58:51.936Z,83.35
2019-05-16T05:01:21.427Z,82.69
2019-05-16T05:04:01.900Z,82.52
2019-05-16T05:06:16.226Z,82.74
2019-05-16T05:08:53.836Z,82.67
2019-05-16T05:11:11.403Z,83.12
2019-05-16T05:13:41.080Z,83.38
2019-05-16T05:16:06.680Z,83.22
2019-05-16T05:18:33.428Z,83.37
2019-05-16T05:21:00.915Z,82.93
2019-05-16T05:23:30.103Z,82.82
2019-05-16T05:25:56.612Z,83.06
2019-05-16T05:28:23.483Z,83.15
2019-05-16T05:30:50.572Z,83.35
2019-05-16T05:33:17.821Z,82.30
2019-05-16T05:35:44.681Z,82.66
2019-05-16T05:38:11.404Z,81.98
2019-05-16T05:40:40.619Z,81.58
2019-05-16T05:43:22.009Z,81.98
2019-05-16T05:45:51.203Z,80.84
2019-05-16T05:48:31.213Z,80.99
2019-05-16T05:51:00.052Z,81.28
2019-05-16T05:53:37.388Z,80.65
2019-05-16T05:56:04.167Z,81.84
2019-05-16T05:58:41.704Z,81.35
2019-05-16T06:01:10.867Z,79.92
2019-05-16T06:03:50.740Z,79.09
2019-05-16T06:06:17.278Z,79.31
2019-05-16T06:08:45.516Z,81.28
2019-05-16T06:22:25.969Z,76.60
2019-05-16T06:24:52.848Z,77.47
2019-05-16T06:27:20.917Z,78.75
2019-05-16T06:29:49.730Z,77.94
2019-05-16T06:32:16.444Z,78.24
2019-05-16T06:34:43.135Z,77.84
2019-05-16T06:37:09.942Z,77.40
2019-05-16T06:39:55.526Z,75.97
2019-05-16T06:42:40.377Z,74.90
2019-05-16T06:45:10.437Z,75.34
2019-05-16T06:47:36.811Z,75.28
2019-05-16T06:50:05.714Z,74.77
2019-05-16T06:52:32.337Z,75.73
2019-05-16T06:55:00.809Z,76.38
2019-05-16T06:57:30.007Z,75.66
2019-05-16T06:59:56.179Z,75.81
2019-05-16T07:02:29.859Z,75.32
2019-05-16T07:04:51.712Z,74.98
2019-05-16T07:07:20.500Z,75.47
2019-05-16T07:09:58.184Z,74.87
2019-05-16T07:12:15.983Z,74.84
2019-05-16T07:14:42.643Z,73.71
2019-05-16T07:17:09.770Z,73.75
2019-05-16T07:19:36.786Z,76.51
2019-05-16T07:22:03.604Z,73.93
2019-05-16T07:24:30.719Z,73.38
2019-05-16T07:26:57.501Z,74.99
2019-05-16T07:29:24.206Z,73.61
2019-05-16T07:31:52.259Z,74.51
2019-05-16T07:34:20.599Z,74.62
2019-05-16T07:36:50.044Z,72.97
2019-05-16T07:39:16.008Z,73.03
2019-05-16T07:41:42.662Z,72.73
2019-05-16T07:44:10.817Z,72.83
2019-05-16T07:46:40.809Z,72.78
2019-05-16T07:49:06.236Z,72.39
2019-05-16T07:51:33.554Z,70.96
2019-05-16T07:54:00.277Z,70.53
2019-05-16T07:56:26.951Z,71.20
2019-05-16T07:58:53.536Z,71.78
2019-05-16T08:01:20.547Z,70.93
2019-05-16T08:03:47.234Z,72.05
2019-05-16T08:06:14.000Z,72.31
2019-05-16T08:08:40.651Z,73.28
2019-05-16T08:11:07.459Z,71.15
2019-05-16T08:13:34.356Z,70.64
2019-05-16T08:16:01.467Z,70.93
2019-05-16T08:18:30.189Z,70.94
2019-05-16T08:20:57.074Z,70.71
2019-05-16T08:23:23.735Z,71.01
2019-05-16T08:25:50.971Z,71.77
2019-05-16T08:28:20.534Z,71.56
2019-05-16T08:30:46.386Z,72.90
2019-05-16T08:33:13.656Z,72.90
2019-05-16T08:35:41.362Z,70.91
2019-05-16T08:38:08.430Z,73.00
2019-05-16T08:40:59.872Z,72.98
2019-05-16T08:43:04.095Z,72.15
2019-05-16T08:45:31.550Z,73.89
2019-05-16T08:48:00.194Z,72.53
2019-05-16T08:50:26.980Z,70.60
2019-05-16T08:52:53.662Z,70.55
2019-05-16T08:55:21.734Z,70.48
2019-05-16T08:57:52.957Z,70.00
2019-05-16T09:00:21.460Z,70.22
2019-05-16T09:02:46.507Z,70.66
2019-05-16T09:05:14.175Z,71.11
2019-05-16T09:07:40.871Z,69.88
2019-05-16T09:10:34.105Z,69.91
2019-05-16T09:12:37.191Z,69.91
2019-05-16T09:15:07.379Z,70.02
2019-05-16T09:17:33.743Z,69.02
2019-05-16T09:20:00.507Z,66.65
2019-05-16T09:22:28.223Z,65.44
2019-05-16T09:24:57.628Z,64.30
2019-05-16T09:27:23.864Z,64.93
2019-05-16T09:29:50.487Z,63.88
2019-05-16T09:32:21.970Z,64.07
2019-05-16T09:34:47.869Z,62.22
2019-05-16T09:37:14.383Z,63.78
2019-05-16T09:39:41.121Z,65.10
2019-05-16T09:42:08.324Z,65.27
2019-05-16T09:44:37.011Z,65.54
2019-05-16T09:47:03.785Z,64.24
2019-05-16T09:49:30.642Z,64.54
2019-05-16T09:51:57.691Z,64.75
2019-05-16T09:54:24.495Z,65.21
2019-05-16T09:56:51.222Z,64.73
2019-05-16T09:59:17.921Z,63.70
2019-05-16T10:01:47.492Z,64.50
2019-05-16T10:04:13.583Z,66.11
2019-05-16T10:06:40.616Z,64.94
2019-05-16T10:09:07.641Z,64.73
2019-05-16T10:11:40.750Z,64.55
2019-05-16T10:14:07.086Z,63.58
2019-05-16T10:16:32.860Z,62.87
2019-05-16T10:18:59.642Z,63.47
2019-05-16T10:21:27.218Z,63.14
2019-05-16T10:23:56.332Z,64.76
2019-05-16T10:26:22.479Z,63.94
2019-05-16T10:28:50.603Z,63.72
2019-05-16T10:31:17.919Z,63.94
2019-05-16T10:33:47.661Z,65.29
2019-05-16T10:36:13.680Z,63.30
2019-05-16T10:38:40.410Z,62.98
2019-05-16T10:41:07.402Z,63.41
2019-05-16T10:43:34.368Z,60.98
2019-05-16T10:46:01.141Z,60.01
2019-05-16T10:48:27.944Z,59.95
2019-05-16T10:50:57.360Z,57.06
2019-05-16T10:53:43.072Z,57.28
2019-05-16T10:55:52.355Z,58.09
2019-05-16T10:58:35.556Z,58.33
2019-05-16T11:01:10.922Z,59.20
2019-05-16T11:03:17.108Z,58.49
2019-05-16T11:05:57.998Z,58.21
2019-05-16T11:08:12.839Z,60.23
2019-05-16T11:10:39.653Z,60.54
2019-05-16T11:13:08.186Z,59.14
2019-05-16T11:15:37.292Z,61.50
2019-05-16T11:18:03.819Z,59.62
2019-05-16T11:20:30.444Z,61.35
2019-05-16T11:22:57.404Z,59.31
2019-05-16T11:25:28.800Z,60.20
2019-05-16T11:27:52.807Z,59.82
2019-05-16T11:30:20.457Z,58.56
2019-05-16T11:32:47.443Z,59.24
2019-05-16T11:35:17.123Z,59.51
2019-05-16T11:37:43.475Z,59.15
2019-05-16T11:40:10.966Z,59.53
2019-05-16T11:42:38.168Z,58.18
2019-05-16T11:45:09.939Z,56.93
2019-05-16T11:47:37.594Z,57.57
2019-05-16T11:50:07.401Z,58.54
2019-05-16T11:52:34.591Z,59.66
2019-05-16T11:55:01.463Z,58.42
2019-05-16T11:57:28.167Z,57.83
2019-05-16T11:59:56.836Z,59.52
2019-05-16T12:02:23.352Z,57.67
2019-05-16T12:04:50.031Z,59.99
2019-05-16T12:07:19.327Z,57.43
2019-05-16T12:09:54.605Z,55.28
2019-05-16T12:12:16.917Z,55.87
2019-05-16T12:14:45.054Z,55.64
2019-05-16T12:17:11.599Z,55.77
2019-05-16T12:19:43.969Z,54.67
2019-05-16T12:22:07.150Z,55.08
2019-05-16T12:24:38.813Z,55.58
2019-05-16T12:27:02.677Z,56.23
2019-05-16T12:29:29.539Z,56.66
2019-05-16T12:32:02.374Z,55.95
2019-05-16T12:34:24.799Z,53.55
2019-05-16T12:36:51.525Z,54.55
2019-05-16T12:39:18.423Z,54.00
2019-05-16T12:41:49.265Z,53.37
2019-05-16T12:44:13.646Z,50.60
2019-05-16T12:46:40.422Z,50.46
2019-05-16T12:49:07.232Z,52.92
2019-05-16T12:51:33.958Z,53.50
2019-05-16T12:54:00.851Z,53.37
2019-05-16T12:56:27.726Z,52.78
2019-05-16T12:58:54.395Z,54.49
2019-05-16T13:01:21.642Z,55.35
2019-05-16T13:03:49.354Z,55.55
2019-05-16T13:06:17.269Z,54.04
2019-05-16T13:08:46.725Z,54.23
2019-05-16T13:11:13.111Z,54.31
2019-05-16T13:13:39.776Z,55.72
2019-05-16T13:16:07.528Z,55.52
2019-05-16T13:18:36.809Z,54.98
2019-05-16T13:21:03.418Z,56.47
2019-05-16T13:23:30.138Z,56.14
2019-05-16T13:25:57.547Z,56.78
2019-05-16T13:28:24.682Z,57.57
2019-05-16T13:30:51.133Z,56.00
2019-05-16T13:33:17.983Z,58.38
2019-05-16T13:35:46.986Z,58.03
2019-05-16T13:38:13.293Z,58.40
2019-05-16T13:40:40.061Z,58.30
2019-05-16T13:43:09.373Z,59.77
2019-05-16T13:45:37.798Z,57.71
2019-05-16T13:48:04.370Z,59.97
2019-05-16T13:50:31.190Z,58.41
2019-05-16T13:52:58.618Z,58.87
2019-05-16T13:55:27.131Z,58.32
2019-05-16T13:57:54.308Z,58.99
2019-05-16T14:00:21.809Z,60.27
2019-05-16T14:02:50.048Z,59.78
2019-05-16T14:05:17.883Z,58.87
2019-05-16T14:07:47.510Z,58.72
2019-05-16T14:10:14.300Z,58.30
2019-05-16T14:12:40.861Z,59.21
2019-05-16T14:15:09.147Z,57.51
2019-05-16T14:17:37.003Z,57.59
2019-05-16T14:20:13.851Z,58.71
2019-05-16T14:22:34.617Z,56.09
2019-05-16T14:25:01.729Z,56.33
2019-05-16T14:27:28.480Z,55.06
2019-05-16T14:29:57.587Z,54.92
2019-05-16T14:32:24.609Z,56.60
2019-05-16T14:34:52.029Z,56.99
2019-05-16T14:37:19.268Z,54.90
2019-05-16T14:39:48.731Z,52.38
2019-05-16T14:42:17.877Z,53.04
2019-05-16T14:45:02.966Z,54.07
2019-05-16T14:47:12.456Z,54.78
2019-05-16T14:49:39.666Z,56.03
2019-05-16T14:52:06.535Z,56.34
2019-05-16T14:54:33.361Z,55.42
2019-05-16T14:57:01.467Z,53.19
2019-05-16T14:59:30.757Z,54.85
2019-05-16T15:01:58.147Z,55.99
2019-05-16T15:04:30.086Z,55.86
2019-05-16T15:06:57.194Z,57.16
2019-05-16T15:09:23.136Z,54.86
2019-05-16T15:11:50.019Z,55.70
2019-05-16T15:14:17.599Z,55.48
2019-05-16T15:16:48.605Z,55.80
2019-05-16T15:19:14.255Z,56.54
2019-05-16T15:21:42.351Z,57.08
2019-05-16T15:24:09.206Z,57.48
2019-05-16T15:26:37.653Z,57.91
2019-05-16T15:29:07.899Z,57.82
2019-05-16T15:31:33.230Z,58.57
2019-05-16T15:34:00.078Z,58.17
2019-05-16T15:36:27.116Z,58.75
2019-05-16T15:38:56.725Z,57.46
2019-05-16T15:41:22.516Z,57.76
2019-05-16T15:43:50.807Z,57.31
2019-05-16T15:46:17.545Z,57.56
2019-05-16T15:48:48.285Z,57.03
2019-05-16T15:51:13.491Z,58.28
2019-05-16T15:53:40.418Z,58.07
2019-05-16T15:56:10.344Z,58.36
2019-05-16T15:58:37.534Z,59.22
2019-05-16T16:01:07.120Z,59.02
2019-05-16T16:03:33.892Z,59.12
2019-05-16T16:06:00.884Z,59.41
2019-05-16T16:08:28.247Z,59.09
2019-05-16T16:10:55.287Z,59.05
2019-05-16T16:13:22.238Z,59.55
2019-05-16T16:15:53.979Z,59.82
2019-05-16T16:18:21.742Z,60.22
2019-05-16T16:20:48.016Z,60.79
2019-05-16T16:23:17.517Z,60.81
2019-05-16T16:25:43.659Z,61.22
2019-05-16T16:28:10.523Z,60.45
2019-05-16T16:30:38.762Z,60.90
2019-05-16T16:33:21.468Z,60.12
2019-05-16T16:35:37.835Z,60.72
2019-05-16T16:38:07.045Z,59.60
2019-05-16T16:40:33.995Z,59.88
2019-05-16T16:43:00.964Z,60.21
2019-05-16T16:45:28.816Z,59.77
2019-05-16T16:47:57.270Z,59.64
2019-05-16T16:50:26.534Z,59.00
2019-05-16T16:52:53.176Z,58.95
2019-05-16T16:55:19.915Z,59.59
2019-05-16T16:57:47.228Z,59.93
2019-05-16T17:00:17.496Z,60.20
2019-05-16T17:02:59.427Z,59.90
2019-05-16T17:05:13.462Z,60.56
2019-05-16T17:07:40.390Z,60.37
2019-05-16T17:10:09.115Z,60.83
2019-05-16T17:12:41.113Z,60.96
2019-05-16T17:15:08.631Z,61.67
2019-05-16T17:17:37.408Z,62.54
2019-05-16T17:20:08.308Z,67.73
2019-05-16T17:22:37.469Z,70.97
2019-05-16T17:25:07.326Z,74.10
2019-05-16T17:27:34.128Z,73.76
2019-05-16T17:30:01.310Z,74.57
2019-05-16T17:32:28.190Z,74.16
2019-05-16T17:34:54.944Z,75.46
2019-05-16T17:37:22.111Z,76.20
2019-05-16T17:39:48.837Z,75.00
2019-05-16T17:42:16.580Z,74.11
2019-05-16T17:44:43.410Z,75.16
2019-05-16T17:47:10.225Z,75.13
2019-05-16T17:49:37.157Z,76.02
2019-05-16T17:52:04.232Z,76.42
2019-05-16T17:54:30.875Z,76.70
2019-05-16T17:56:57.781Z,76.97
2019-05-16T17:59:24.469Z,78.17
2019-05-16T18:01:51.746Z,77.99
2019-05-16T18:04:18.463Z,78.73
2019-05-16T18:06:47.290Z,78.44
2019-05-16T18:09:17.025Z,78.40
2019-05-16T18:11:44.091Z,77.69
2019-05-16T18:14:11.837Z,78.44
2019-05-16T18:16:52.723Z,78.00
2019-05-16T18:19:07.187Z,78.15
2019-05-16T18:21:34.039Z,77.38
2019-05-16T18:24:00.713Z,77.29
2019-05-16T18:26:27.490Z,78.24
2019-05-16T18:28:55.473Z,78.55
2019-05-16T18:31:22.509Z,78.94
2019-05-16T18:33:49.351Z,78.77
2019-05-16T18:36:17.002Z,79.24
2019-05-16T18:38:44.001Z,79.66
2019-05-16T18:41:11.516Z,79.67
2019-05-16T18:43:39.303Z,78.68
2019-05-16T18:46:07.258Z,78.20
2019-05-16T18:48:36.523Z,78.91
2019-05-16T18:51:03.364Z,78.84
2019-05-16T18:53:30.225Z,78.02
2019-05-16T18:56:00.374Z,78.56
2019-05-16T18:58:30.660Z,78.42
2019-05-16T19:00:57.432Z,78.82
2019-05-16T19:07:19.429Z,78.46
2019-05-16T19:09:46.228Z,78.97
2019-05-16T19:12:20.954Z,79.59
2019-05-16T19:15:07.175Z,79.53
2019-05-16T19:17:33.414Z,79.47
2019-05-16T19:20:00.074Z,79.59
2019-05-16T19:22:26.768Z,79.61
2019-05-16T19:24:57.337Z,79.55
2019-05-16T19:27:25.865Z,79.36
2019-05-16T19:50:46.411Z,79.87
2019-05-16T19:53:13.339Z,79.99
2019-05-16T19:55:40.158Z,79.89
2019-05-16T19:58:07.123Z,79.83
2019-05-16T20:00:37.189Z,79.84
2019-05-16T20:03:03.743Z,79.89
2019-05-16T20:05:33.523Z,79.74
2019-05-16T20:08:00.333Z,79.53
2019-05-16T20:10:27.220Z,79.67
2019-05-16T20:13:53.647Z,79.69
2019-05-16T20:28:18.478Z,80.26
2019-05-16T20:35:13.046Z,80.31
2019-05-16T20:38:13.531Z,80.17
2019-05-16T20:40:40.487Z,80.21
2019-05-16T20:43:07.924Z,80.61
2019-05-16T20:45:49.868Z,80.87
2019-05-16T20:49:08.899Z,80.63
2019-05-16T20:52:21.927Z,80.52
2019-05-16T20:54:49.928Z,80.45
2019-05-16T20:57:17.322Z,80.46
2019-05-16T21:00:27.433Z,80.41
2019-05-16T21:03:20.071Z,80.63
2019-05-16T21:05:47.900Z,80.55
2019-05-16T21:08:17.043Z,80.58
2019-05-16T21:11:23.376Z,80.51
2019-05-16T21:18:30.384Z,80.42
2019-05-16T21:21:48.046Z,80.48
2019-05-16T21:24:15.357Z,80.54
2019-05-16T21:26:42.232Z,80.59
2019-05-16T21:29:47.200Z,80.62
2019-05-16T21:36:27.364Z,80.81
2019-05-16T21:42:45.782Z,81.36
2019-05-16T21:49:27.621Z,81.11
2019-05-16T21:59:53.121Z,80.72
2019-05-16T22:02:58.209Z,80.49
2019-05-16T22:05:25.177Z,80.48
2019-05-16T22:07:51.848Z,80.54
2019-05-16T22:10:46.765Z,80.61
2019-05-16T22:17:27.646Z,80.91
2019-05-16T22:24:09.329Z,80.71
2019-05-16T22:27:18.067Z,80.97
2019-05-16T22:29:44.877Z,81.00
2019-05-16T22:32:11.763Z,81.12
2019-05-16T22:35:00.027Z,81.45
2019-05-16T22:41:53.544Z,81.15
2019-05-16T22:45:17.571Z,81.27
2019-05-16T22:47:46.636Z,81.45
2019-05-16T22:50:14.614Z,81.54
2019-05-16T22:53:37.022Z,81.68
2019-05-16T23:14:36.121Z,81.98
2019-05-16T23:21:24.638Z,82.35
2019-05-16T23:28:09.648Z,81.99
2019-05-16T23:34:49.816Z,82.25
2019-05-16T23:41:36.876Z,81.69
2019-05-16T23:48:29.118Z,82.00
2019-05-16T23:51:37.678Z,82.11
2019-05-16T23:54:06.503Z,82.21
2019-05-16T23:56:32.988Z,82.53
2019-05-16T23:59:13.710Z,82.19
